Time;durP1;ratioP1;P1;durP2;ratioP2;P2;SDS_P1;SDS_P2;PMS_P1;PMS_P2;Temp;Humidity;BMP_temperature;BMP_pressure;BME280_temperature;BME280_humidity;BME280_pressure;Samples;Min_cycle;Max_cycle;Signal;HPM_P1;HPM_P2
2023/01/13 00:00:23;;;;;;;2.17;1.88;;;9.60;99.90;;;;;;5018735;28;20502;-59
2023/01/13 00:02:48;;;;;;;2.95;1.92;;;9.60;99.90;;;;;;5017997;28;20024;-59
2023/01/13 00:05:14;;;;;;;3.42;1.75;;;9.60;99.90;;;;;;5020264;28;20033;-59
2023/01/13 00:07:39;;;;;;;3.53;1.75;;;9.50;99.90;;;;;;5021203;28;20038;-54
2023/01/13 00:10:09;;;;;;;6.22;1.65;;;9.40;99.90;;;;;;5019229;28;20532;-58
2023/01/13 00:12:39;;;;;;;5.53;1.42;;;9.20;99.90;;;;;;5018914;28;20034;-60
2023/01/13 00:15:07;;;;;;;6.55;1.48;;;9.00;99.90;;;;;;5018383;28;20029;-59
2023/01/13 00:17:32;;;;;;;6.05;1.60;;;8.90;99.90;;;;;;5000375;28;20608;-58
2023/01/13 00:19:58;;;;;;;4.63;1.30;;;8.80;99.90;;;;;;5020117;28;20036;-58
2023/01/13 00:22:23;;;;;;;6.70;1.55;;;8.70;99.90;;;;;;5019151;28;20038;-58
2023/01/13 00:24:49;;;;;;;7.18;1.30;;;8.70;99.90;;;;;;4986926;28;20068;-58
2023/01/13 00:27:14;;;;;;;6.10;1.83;;;8.60;99.90;;;;;;5018696;28;20037;-59
2023/01/13 00:29:40;;;;;;;3.95;1.30;;;8.50;99.90;;;;;;5017486;28;20409;-58
2023/01/13 00:32:06;;;;;;;6.05;1.67;;;8.50;99.90;;;;;;5018812;28;20038;-57
2023/01/13 00:34:31;;;;;;;4.93;1.13;;;8.50;99.90;;;;;;5019381;28;20105;-57
2023/01/13 00:36:57;;;;;;;4.65;1.40;;;8.50;99.90;;;;;;5019100;28;20497;-58
2023/01/13 00:39:22;;;;;;;5.78;1.40;;;8.40;99.90;;;;;;5002625;28;20025;-58
2023/01/13 00:44:32;;;;;;;4.20;1.33;;;8.40;99.90;;;;;;5020193;28;20044;-58
2023/01/13 00:46:58;;;;;;;2.28;1.25;;;8.50;99.90;;;;;;5031980;28;20037;-58
2023/01/13 00:49:23;;;;;;;2.35;1.00;;;8.50;99.90;;;;;;5039216;28;20032;-59
2023/01/13 00:51:49;;;;;;;2.80;0.80;;;8.60;99.90;;;;;;5038679;28;20548;-58
2023/01/13 00:54:14;;;;;;;2.67;0.70;;;8.60;99.90;;;;;;5039252;28;20022;-58
2023/01/13 00:56:40;;;;;;;3.25;1.20;;;8.60;99.90;;;;;;5037586;28;20064;-58
2023/01/13 00:59:08;;;;;;;1.48;1.08;;;8.60;99.90;;;;;;5037920;28;20075;-57
2023/01/13 01:01:34;;;;;;;4.15;0.90;;;8.60;99.90;;;;;;5036884;28;20025;-58
2023/01/13 01:03:59;;;;;;;8.13;1.25;;;8.60;99.90;;;;;;5037954;28;20515;-58
2023/01/13 01:06:26;;;;;;;4.10;1.02;;;8.60;99.90;;;;;;5036715;28;20484;-58
2023/01/13 01:08:54;;;;;;;1.88;0.95;;;8.60;99.90;;;;;;5037286;28;20021;-58
2023/01/13 01:11:23;;;;;;;0.55;0.50;;;8.60;99.90;;;;;;5037205;28;20044;-58
2023/01/13 01:13:51;;;;;;;2.50;0.70;;;8.50;99.90;;;;;;5037966;28;20029;-57
2023/01/13 01:16:19;;;;;;;2.03;0.68;;;8.50;99.90;;;;;;5037595;28;20094;-55
2023/01/13 01:18:46;;;;;;;4.53;1.00;;;8.40;99.90;;;;;;5037879;28;20162;-58
2023/01/13 01:21:13;;;;;;;3.58;1.20;;;8.40;99.90;;;;;;5038888;28;20017;-58
2023/01/13 01:23:39;;;;;;;3.53;0.63;;;8.40;99.90;;;;;;5037060;28;20064;-56
2023/01/13 01:26:11;;;;;;;1.23;1.13;;;8.40;99.90;;;;;;5036427;28;20120;-57
2023/01/13 01:28:37;;;;;;;2.30;0.80;;;8.30;99.90;;;;;;5036893;28;20100;-57
2023/01/13 01:31:07;;;;;;;4.38;0.98;;;8.30;99.90;;;;;;5037927;28;20109;-58
2023/01/13 01:33:33;;;;;;;1.60;0.70;;;8.20;99.90;;;;;;5035517;28;20021;-57
2023/01/13 01:36:00;;;;;;;3.00;1.10;;;8.20;99.90;;;;;;5035608;28;20689;-59
2023/01/13 01:38:25;;;;;;;4.40;1.52;;;8.10;99.90;;;;;;5034220;28;20021;-55
2023/01/13 01:40:51;;;;;;;3.67;0.80;;;8.00;99.90;;;;;;5036868;28;20052;-58
2023/01/13 01:46:05;;;;;;;2.70;0.88;;;8.00;99.90;;;;;;5036270;28;20587;-55
2023/01/13 01:48:40;;;;;;;3.40;0.75;;;7.90;99.90;;;;;;5037309;28;20040;-55
2023/01/13 01:51:09;;;;;;;3.03;0.80;;;7.90;99.90;;;;;;5037858;28;20596;-58
2023/01/13 01:53:35;;;;;;;7.65;1.63;;;7.90;99.90;;;;;;5035487;28;20036;-57
2023/01/13 01:56:02;;;;;;;5.93;1.80;;;7.90;99.90;;;;;;5036053;28;20029;-57
2023/01/13 01:58:38;;;;;;;6.20;1.38;;;7.80;99.90;;;;;;5032428;28;20646;-57
2023/01/13 02:01:03;;;;;;;7.40;1.52;;;7.80;99.90;;;;;;5034059;28;20017;-56
2023/01/13 02:03:29;;;;;;;6.07;1.20;;;7.80;99.90;;;;;;5034203;28;20590;-57
2023/01/13 02:05:55;;;;;;;4.10;1.15;;;7.70;99.90;;;;;;5001195;28;20029;-57
2023/01/13 02:08:21;;;;;;;6.75;1.58;;;7.70;99.90;;;;;;5036274;28;20036;-59
2023/01/13 02:10:52;;;;;;;7.25;1.77;;;7.70;99.90;;;;;;5034508;28;20013;-58
2023/01/13 02:13:19;;;;;;;5.53;1.13;;;7.70;99.90;;;;;;5017902;28;20048;-53
2023/01/13 02:16:14;;;;;;;9.68;2.25;;;7.70;99.90;;;;;;5034960;28;20036;-59
2023/01/13 02:18:57;;;;;;;5.40;1.60;;;7.70;99.90;;;;;;5036500;28;20063;-60
2023/01/13 02:21:46;;;;;;;8.55;2.25;;;7.70;99.90;;;;;;5036619;28;20076;-54
2023/01/13 02:27:33;;;;;;;10.90;1.92;;;7.80;99.90;;;;;;5036454;28;20040;-59
2023/01/13 02:33:20;;;;;;;7.57;1.73;;;7.70;99.90;;;;;;5021238;28;20095;-58
2023/01/13 02:36:01;;;;;;;7.05;2.28;;;7.60;99.90;;;;;;5035267;28;20060;-59
2023/01/13 02:38:36;;;;;;;9.65;2.00;;;7.70;99.90;;;;;;5036228;28;20104;-59
2023/01/13 02:44:10;;;;;;;9.95;1.83;;;7.60;99.90;;;;;;4962161;28;20091;-56
2023/01/13 02:46:56;;;;;;;6.75;2.13;;;7.50;99.90;;;;;;5035962;28;20401;-59
2023/01/13 02:49:41;;;;;;;5.25;2.15;;;7.50;99.90;;;;;;5035429;28;20025;-60
2023/01/13 02:52:19;;;;;;;4.68;1.80;;;7.50;99.90;;;;;;5034969;28;20036;-58
2023/01/13 02:54:51;;;;;;;8.75;1.88;;;7.50;99.90;;;;;;5034355;28;20443;-59
2023/01/13 02:57:19;;;;;;;9.48;2.30;;;7.50;99.90;;;;;;5016945;28;20083;-58
2023/01/13 02:59:46;;;;;;;6.65;2.17;;;7.50;99.90;;;;;;5035076;28;20022;-58
2023/01/13 03:02:16;;;;;;;7.97;2.35;;;7.50;99.90;;;;;;5036128;28;20112;-59
2023/01/13 03:04:46;;;;;;;7.43;2.15;;;7.50;99.90;;;;;;5033271;28;20025;-59
2023/01/13 03:07:34;;;;;;;8.27;2.33;;;7.50;99.90;;;;;;5019181;28;20032;-58
2023/01/13 03:10:09;;;;;;;5.53;1.73;;;7.40;99.90;;;;;;5002466;28;20115;-60
2023/01/13 03:12:50;;;;;;;4.53;2.40;;;7.30;99.90;;;;;;5033516;28;20516;-58
2023/01/13 03:15:28;;;;;;;6.75;1.48;;;7.30;99.90;;;;;;5033771;28;20384;-59
2023/01/13 03:18:16;;;;;;;7.55;2.50;;;7.30;99.90;;;;;;5035060;28;20071;-58
2023/01/13 03:20:53;;;;;;;10.27;1.75;;;7.30;99.90;;;;;;5037439;28;20101;-59
2023/01/13 03:23:24;;;;;;;;;;;7.20;99.90;;;;;;5035715;28;20029;-59
2023/01/13 03:25:57;;;;;;;9.82;2.53;;;7.20;99.90;;;;;;5033900;28;19909;-58
2023/01/13 03:28:32;;;;;;;9.18;2.67;;;7.20;99.90;;;;;;5033023;28;20567;-58
2023/01/13 03:31:05;;;;;;;14.07;2.08;;;7.30;99.90;;;;;;5016534;28;20112;-58
2023/01/13 03:33:37;;;;;;;7.78;2.80;;;7.30;99.90;;;;;;5015868;28;20556;-58
2023/01/13 03:36:08;;;;;;;11.13;2.67;;;7.30;99.90;;;;;;5016808;28;20041;-56
2023/01/13 03:38:41;;;;;;;5.10;2.17;;;7.30;99.90;;;;;;5029789;28;20025;-56
2023/01/13 03:41:40;;;;;;;9.48;2.63;;;7.20;99.90;;;;;;5037579;28;20024;-59
2023/01/13 03:44:23;;;;;;;8.73;2.13;;;7.10;99.90;;;;;;5025567;28;20030;-59
2023/01/13 03:47:14;;;;;;;4.85;2.10;;;7.10;99.90;;;;;;5064124;22;20358;-54
2023/01/13 03:49:51;;;;;;;4.93;1.73;;;7.10;99.90;;;;;;5063480;28;20095;-56
2023/01/13 03:52:23;;;;;;;9.32;1.70;;;7.10;99.90;;;;;;5063253;28;20020;-54
2023/01/13 03:54:53;;;;;;;9.63;2.17;;;7.10;99.90;;;;;;5063391;28;20465;-54
2023/01/13 03:57:23;;;;;;;8.82;2.47;;;7.10;99.90;;;;;;5045853;28;20033;-59
2023/01/13 03:59:53;;;;;;;10.25;2.22;;;7.10;99.90;;;;;;5038527;28;20013;-54
2023/01/13 04:02:48;;;;;;;11.43;3.08;;;7.10;99.90;;;;;;5035876;28;20080;-57
2023/01/13 04:05:14;;;;;;;8.07;2.65;;;7.00;99.90;;;;;;5035129;28;20017;-57
2023/01/13 04:08:01;;;;;;;8.38;2.22;;;7.00;99.90;;;;;;5037466;28;20022;-57
2023/01/13 04:10:43;;;;;;;13.23;3.10;;;7.00;99.90;;;;;;5039129;28;20017;-56
2023/01/13 04:13:16;;;;;;;10.27;3.05;;;7.00;99.90;;;;;;5039848;28;20025;-57
2023/01/13 04:15:45;;;;;;;8.13;2.47;;;7.00;99.90;;;;;;5034571;28;20026;-53
2023/01/13 04:18:22;;;;;;;13.93;3.35;;;6.90;99.90;;;;;;5040173;28;20056;-55
2023/01/13 04:20:50;;;;;;;11.07;3.30;;;6.80;99.90;;;;;;5038645;28;20014;-55
2023/01/13 04:23:18;;;;;;;19.85;3.53;;;6.80;99.90;;;;;;5020200;28;20051;-57
2023/01/13 04:25:44;;;;;;;14.30;2.67;;;6.70;99.90;;;;;;5039623;28;20067;-57
2023/01/13 04:28:11;;;;;;;10.80;3.22;;;6.70;99.90;;;;;;5035731;28;20026;-57
2023/01/13 04:30:37;;;;;;;11.93;2.80;;;6.70;99.90;;;;;;5036110;28;20037;-58
2023/01/13 04:33:04;;;;;;;16.98;3.63;;;6.60;99.90;;;;;;5035642;28;20056;-54
2023/01/13 04:35:30;;;;;;;14.10;3.80;;;6.60;99.90;;;;;;5034859;28;20083;-58
2023/01/13 04:37:58;;;;;;;15.77;3.47;;;6.50;99.90;;;;;;5033994;28;20021;-56
2023/01/13 04:40:24;;;;;;;15.90;4.10;;;6.40;99.90;;;;;;5036688;28;20196;-56
2023/01/13 04:42:49;;;;;;;21.83;3.70;;;6.40;99.90;;;;;;5035079;28;20517;-54
2023/01/13 04:45:15;;;;;;;16.38;3.78;;;6.50;99.90;;;;;;5036376;28;20096;-58
2023/01/13 04:47:41;;;;;;;22.35;4.20;;;6.50;99.90;;;;;;5044198;28;20503;-56
2023/01/13 04:50:07;;;;;;;18.23;3.33;;;6.40;99.90;;;;;;5048135;28;20074;-50
2023/01/13 04:52:33;;;;;;;17.70;4.95;;;6.40;99.90;;;;;;5048587;28;20029;-55
2023/01/13 04:54:59;;;;;;;14.02;3.30;;;6.40;99.90;;;;;;5029263;28;20039;-55
2023/01/13 04:57:24;;;;;;;11.55;3.03;;;6.30;99.90;;;;;;5047811;28;20029;-55
2023/01/13 04:59:50;;;;;;;15.90;4.18;;;6.30;99.90;;;;;;5029804;28;20024;-56
2023/01/13 05:02:18;;;;;;;21.67;3.78;;;6.30;99.90;;;;;;5048224;28;20078;-54
2023/01/13 05:04:47;;;;;;;19.48;3.60;;;6.40;99.90;;;;;;5047259;28;20013;-51
2023/01/13 05:07:14;;;;;;;19.40;3.22;;;6.30;99.90;;;;;;5030361;28;20037;-52
2023/01/13 05:09:40;;;;;;;14.85;3.20;;;6.30;99.90;;;;;;5047021;28;20041;-53
2023/01/13 05:17:34;;;;;;;14.23;3.33;;;6.30;99.90;;;;;;5032373;28;20457;-56
2023/01/13 05:20:00;;;;;;;16.60;3.38;;;6.40;99.90;;;;;;5048105;28;20064;-52
2023/01/13 05:25:23;;;;;;;13.18;2.80;;;6.30;99.90;;;;;;5032749;28;20075;-51
2023/01/13 05:27:53;;;;;;;17.65;4.03;;;6.40;99.90;;;;;;5047056;28;20054;-54
2023/01/13 05:30:24;;;;;;;16.30;3.30;;;6.30;99.90;;;;;;5046932;28;20047;-56
2023/01/13 05:32:50;;;;;;;14.02;3.80;;;6.30;99.90;;;;;;5047499;28;20048;-57
2023/01/13 05:35:16;;;;;;;17.02;3.35;;;6.30;99.90;;;;;;5046759;28;20759;-56
2023/01/13 05:37:43;;;;;;;13.73;2.78;;;6.30;99.90;;;;;;5047217;28;20036;-54
2023/01/13 05:43:20;;;;;;;20.27;3.50;;;6.20;99.90;;;;;;5047735;28;20058;-57
2023/01/13 05:45:45;;;;;;;13.95;4.10;;;6.30;99.90;;;;;;5047144;28;20021;-56
2023/01/13 05:48:12;;;;;;;10.23;3.10;;;6.20;99.90;;;;;;5047335;28;20111;-55
2023/01/13 05:50:37;;;;;;;12.15;4.20;;;6.30;99.90;;;;;;5047341;28;20032;-55
2023/01/13 05:53:03;;;;;;;18.05;4.47;;;6.30;99.90;;;;;;5047593;28;20439;-57
2023/01/13 05:55:29;;;;;;;14.45;3.60;;;6.30;99.90;;;;;;5046796;28;20029;-54
2023/01/13 05:57:55;;;;;;;15.80;3.50;;;6.30;99.90;;;;;;5045844;28;20510;-56
2023/01/13 06:00:20;;;;;;;14.73;2.92;;;6.30;99.90;;;;;;5028954;28;20028;-54
2023/01/13 06:02:46;;;;;;;17.05;3.78;;;6.40;99.90;;;;;;5047139;28;20095;-54
2023/01/13 06:05:11;;;;;;;18.38;3.55;;;6.40;99.90;;;;;;5047064;28;20024;-55
2023/01/13 06:07:37;;;;;;;15.23;3.55;;;6.40;99.90;;;;;;5047168;28;20032;-52
2023/01/13 06:10:03;;;;;;;16.30;3.75;;;6.40;99.90;;;;;;5046788;28;20101;-54
2023/01/13 06:12:29;;;;;;;15.80;2.80;;;6.40;99.90;;;;;;5047205;28;20021;-57
2023/01/13 06:14:54;;;;;;;11.70;3.20;;;6.40;99.90;;;;;;5046930;28;20024;-56
2023/01/13 06:17:20;;;;;;;15.10;2.90;;;6.40;99.90;;;;;;5046785;28;20028;-57
2023/01/13 06:19:45;;;;;;;17.70;3.15;;;6.50;99.90;;;;;;5047337;28;20052;-56
2023/01/13 06:22:31;;;;;;;13.80;3.38;;;6.50;99.90;;;;;;5047076;28;20397;-57
2023/01/13 06:24:57;;;;;;;18.17;3.80;;;6.50;99.90;;;;;;5046441;28;20021;-57
2023/01/13 06:27:23;;;;;;;8.82;2.80;;;6.50;99.90;;;;;;5046470;28;20037;-52
2023/01/13 06:29:49;;;;;;;13.75;3.30;;;6.60;99.90;;;;;;5046784;28;20426;-55
2023/01/13 06:32:37;;;;;;;11.60;3.40;;;6.60;99.90;;;;;;5046468;28;20544;-56
2023/01/13 06:35:07;;;;;;;11.52;3.50;;;6.60;99.90;;;;;;5046559;28;20033;-52
2023/01/13 06:37:34;;;;;;;14.95;3.90;;;6.60;99.90;;;;;;5045351;28;20029;-55
2023/01/13 06:40:03;;;;;;;20.77;3.80;;;6.60;99.90;;;;;;5046654;28;20047;-54
2023/01/13 06:45:17;;;;;;;16.45;3.60;;;6.50;99.90;;;;;;5046599;28;20024;-55
2023/01/13 06:47:43;;;;;;;15.75;3.40;;;6.50;99.90;;;;;;5046018;28;20536;-52
2023/01/13 06:50:09;;;;;;;17.13;4.13;;;6.40;99.90;;;;;;5046217;28;20091;-55
2023/01/13 06:52:35;;;;;;;13.57;3.78;;;6.40;99.90;;;;;;5045242;28;20037;-55
2023/01/13 06:55:00;;;;;;;14.40;3.60;;;6.40;99.90;;;;;;5045963;28;20025;-55
2023/01/13 06:57:26;;;;;;;15.70;3.55;;;6.40;99.90;;;;;;5046138;28;20039;-55
2023/01/13 06:59:52;;;;;;;11.18;3.58;;;6.30;99.90;;;;;;5027493;28;20059;-57
2023/01/13 07:02:17;;;;;;;14.07;4.05;;;6.30;99.90;;;;;;5046353;28;20048;-57
2023/01/13 07:04:44;;;;;;;18.52;3.97;;;6.30;99.90;;;;;;5046282;28;20025;-56
2023/01/13 07:07:11;;;;;;;14.73;3.63;;;6.30;99.90;;;;;;5046345;28;20028;-57
2023/01/13 07:09:36;;;;;;;9.88;3.42;;;6.30;99.90;;;;;;5046121;28;20036;-56
2023/01/13 07:12:02;;;;;;;11.38;3.22;;;6.30;99.90;;;;;;5046074;28;20033;-56
2023/01/13 07:17:12;;;;;;;22.17;4.05;;;6.30;99.90;;;;;;5046950;28;20111;-54
2023/01/13 07:19:37;;;;;;;13.52;3.80;;;6.40;99.90;;;;;;5028476;28;20408;-57
2023/01/13 07:22:03;;;;;;;17.27;4.00;;;6.40;99.90;;;;;;5046544;28;20017;-54
2023/01/13 07:24:28;;;;;;;15.88;3.45;;;6.40;99.90;;;;;;5049004;28;20480;-57
2023/01/13 07:26:54;;;;;;;14.98;3.08;;;6.40;99.90;;;;;;5050183;28;20028;-53
2023/01/13 07:29:20;;;;;;;12.85;3.47;;;6.40;99.90;;;;;;5050131;28;20150;-53
2023/01/13 07:31:46;;;;;;;20.58;4.53;;;6.40;99.90;;;;;;5050162;28;20491;-54
2023/01/13 07:34:11;;;;;;;16.00;4.68;;;6.40;99.90;;;;;;5049389;28;20808;-55
2023/01/13 07:36:38;;;;;;;12.02;3.47;;;6.40;99.90;;;;;;5048639;28;20029;-55
2023/01/13 07:39:03;;;;;;;20.23;4.03;;;6.40;99.90;;;;;;5031994;28;20017;-57
2023/01/13 07:44:15;;;;;;;15.60;3.65;;;6.40;99.90;;;;;;5027746;28;20076;-55
2023/01/13 07:46:41;;;;;;;11.20;3.90;;;6.40;99.90;;;;;;5048933;28;20056;-53
2023/01/13 07:49:08;;;;;;;10.85;3.58;;;6.40;99.90;;;;;;5049810;28;20071;-54
2023/01/13 07:51:38;;;;;;;19.70;4.00;;;6.30;99.90;;;;;;5049882;28;20068;-52
2023/01/13 07:54:04;;;;;;;14.77;3.80;;;6.40;99.90;;;;;;5049361;28;20028;-56
2023/01/13 07:56:29;;;;;;;12.60;3.80;;;6.40;99.90;;;;;;5049144;28;20105;-55
2023/01/13 07:58:59;;;;;;;16.13;4.18;;;6.40;99.90;;;;;;5049858;28;20068;-56
2023/01/13 08:01:26;;;;;;;17.02;4.30;;;6.40;99.90;;;;;;5032089;28;20028;-56
2023/01/13 08:03:52;;;;;;;20.77;3.45;;;6.40;99.90;;;;;;5049432;28;20028;-54
2023/01/13 08:06:18;;;;;;;17.30;4.40;;;6.40;99.90;;;;;;5048734;28;20109;-54
2023/01/13 08:08:44;;;;;;;18.15;3.97;;;6.50;99.90;;;;;;5031518;28;21700;-56
2023/01/13 08:11:09;;;;;;;17.17;3.17;;;6.50;99.90;;;;;;5049273;28;20031;-55
2023/01/13 08:13:35;;;;;;;16.38;3.90;;;6.50;99.90;;;;;;5048731;28;20029;-55
2023/01/13 08:16:03;;;;;;;18.13;4.03;;;6.60;99.90;;;;;;5031012;28;20024;-56
2023/01/13 08:18:31;;;;;;;18.55;4.03;;;6.70;99.90;;;;;;5048913;28;20045;-54
2023/01/13 08:21:01;;;;;;;14.32;3.65;;;6.70;99.90;;;;;;5049593;28;20098;-56
2023/01/13 08:23:27;;;;;;;17.42;4.72;;;6.70;99.90;;;;;;5048229;28;20523;-56
2023/01/13 08:25:52;;;;;;;23.05;4.75;;;6.80;99.90;;;;;;5048584;28;20112;-55
2023/01/13 08:28:18;;;;;;;16.60;4.28;;;6.80;99.90;;;;;;5029866;28;20094;-53
2023/01/13 08:30:44;;;;;;;11.73;3.55;;;6.80;99.90;;;;;;5048291;28;20061;-55
2023/01/13 08:33:11;;;;;;;22.73;5.38;;;6.90;99.90;;;;;;5030856;28;20028;-56
2023/01/13 08:35:38;;;;;;;14.05;4.00;;;6.90;99.90;;;;;;5029881;28;20033;-53
2023/01/13 08:38:04;;;;;;;11.02;3.20;;;6.90;99.90;;;;;;5049121;28;20036;-56
2023/01/13 08:40:29;;;;;;;19.58;4.47;;;7.00;99.90;;;;;;5047832;28;20502;-54
2023/01/13 08:42:56;;;;;;;20.27;4.47;;;7.00;99.90;;;;;;5049001;28;20025;-54
2023/01/13 08:45:22;;;;;;;12.65;3.30;;;7.00;99.90;;;;;;5049392;28;20013;-56
2023/01/13 08:47:47;;;;;;;15.73;4.18;;;7.10;99.90;;;;;;5048621;28;20447;-55
2023/01/13 08:50:13;;;;;;;16.58;4.82;;;7.10;99.90;;;;;;5048928;28;20027;-55
2023/01/13 08:52:39;;;;;;;14.82;3.70;;;7.20;99.90;;;;;;5048476;28;20542;-56
2023/01/13 08:55:06;;;;;;;18.77;4.53;;;7.20;99.90;;;;;;5047308;28;20056;-52
2023/01/13 08:57:31;;;;;;;18.90;4.20;;;7.10;99.90;;;;;;5047357;28;20037;-56
2023/01/13 08:59:57;;;;;;;14.15;3.50;;;7.20;99.90;;;;;;5048805;28;20021;-54
2023/01/13 09:02:24;;;;;;;13.88;4.32;;;7.20;99.90;;;;;;5047841;28;20032;-53
2023/01/13 09:04:50;;;;;;;28.45;4.60;;;7.20;99.90;;;;;;5046476;28;20071;-52
2023/01/13 09:07:16;;;;;;;11.23;3.75;;;7.20;99.90;;;;;;5048395;28;20013;-51
2023/01/13 09:09:42;;;;;;;15.23;3.13;;;7.20;99.90;;;;;;5047360;28;20048;-52
2023/01/13 09:14:55;;;;;;;14.95;4.05;;;7.30;99.90;;;;;;5048600;28;20087;-51
2023/01/13 09:17:22;;;;;;;11.77;3.95;;;7.30;99.90;;;;;;5030083;28;20028;-53
2023/01/13 09:19:48;;;;;;;17.83;3.50;;;7.40;99.90;;;;;;5029720;28;20025;-54
2023/01/13 09:22:15;;;;;;;13.60;3.67;;;7.40;99.90;;;;;;5028849;28;20029;-55
2023/01/13 09:24:41;;;;;;;14.27;2.97;;;7.40;99.90;;;;;;5047733;28;20021;-55
2023/01/13 09:27:08;;;;;;;15.48;3.28;;;7.50;99.90;;;;;;5047202;28;20029;-56
2023/01/13 09:29:34;;;;;;;12.38;2.55;;;7.60;99.90;;;;;;5047270;28;20037;-55
2023/01/13 09:31:59;;;;;;;10.25;3.00;;;7.60;99.90;;;;;;5046811;28;20032;-54
2023/01/13 09:37:09;;;;;;;18.05;2.72;;;7.70;99.90;;;;;;5046913;28;20070;-56
2023/01/13 09:39:35;;;;;;;18.02;4.45;;;7.70;99.90;;;;;;5029464;28;20142;-55
2023/01/13 09:45:18;;;;;;;13.50;2.55;;;7.60;99.90;;;;;;5047347;28;20087;-57
2023/01/13 09:48:11;;;;;;;17.23;2.60;;;7.60;99.90;;;;;;5127770;22;20051;-58
2023/01/13 09:51:05;;;;;;;15.02;2.35;;;7.60;99.90;;;;;;5046610;28;20029;-60
2023/01/13 09:54:18;;;;;;;10.20;2.03;;;7.60;99.90;;;;;;5046687;28;20059;-60
2023/01/13 09:56:44;;;;;;;9.15;2.15;;;7.50;99.90;;;;;;5033530;28;20136;-62
2023/01/13 09:59:11;;;;;;;12.27;2.40;;;7.50;99.90;;;;;;5030783;28;20585;-59
2023/01/13 10:01:58;;;;;;;9.77;2.55;;;7.50;99.90;;;;;;5036242;28;20040;-61
2023/01/13 10:04:24;;;;;;;5.93;1.70;;;7.50;99.90;;;;;;5036164;28;20127;-59
2023/01/13 10:06:59;;;;;;;11.50;2.83;;;7.50;99.90;;;;;;5033820;28;20072;-59
2023/01/13 10:09:31;;;;;;;9.20;2.63;;;7.50;99.90;;;;;;5032728;28;20041;-62
2023/01/13 10:14:51;;;;;;;10.00;2.72;;;7.50;99.90;;;;;;5039548;28;20082;-61
2023/01/13 10:17:35;;;;;;;8.88;1.98;;;7.60;99.90;;;;;;5035229;28;20029;-60
2023/01/13 10:20:15;;;;;;;7.72;2.33;;;7.60;99.90;;;;;;5036045;28;20100;-57
2023/01/13 10:22:52;;;;;;;12.30;2.30;;;7.60;99.90;;;;;;5039015;28;20083;-58
2023/01/13 10:25:45;;;;;;;7.45;2.22;;;7.70;99.90;;;;;;5039071;28;20531;-61
2023/01/13 10:28:14;;;;;;;8.70;2.08;;;7.70;99.90;;;;;;5030449;28;20025;-58
2023/01/13 10:30:44;;;;;;;7.30;1.75;;;7.70;99.90;;;;;;5030491;28;20128;-60
2023/01/13 10:33:19;;;;;;;9.20;2.75;;;7.70;99.90;;;;;;5042426;28;20017;-61
2023/01/13 10:36:00;;;;;;;7.53;1.90;;;7.80;99.90;;;;;;5029794;28;20028;-60
2023/01/13 10:38:34;;;;;;;8.80;2.28;;;7.70;99.90;;;;;;5037727;28;20447;-62
2023/01/13 10:41:04;;;;;;;9.40;2.13;;;7.80;99.90;;;;;;5030444;28;20025;-58
2023/01/13 10:43:31;;;;;;;12.15;2.22;;;7.80;99.90;;;;;;5040218;28;20504;-60
2023/01/13 10:46:09;;;;;;;11.23;2.28;;;7.80;99.90;;;;;;5037069;28;20491;-58
2023/01/13 10:48:40;;;;;;;11.93;2.92;;;7.80;99.90;;;;;;5033293;28;20045;-59
2023/01/13 10:51:18;;;;;;;5.18;1.83;;;7.80;99.90;;;;;;5031525;28;20067;-61
2023/01/13 10:54:10;;;;;;;5.90;2.55;;;7.70;99.90;;;;;;5013084;28;20083;-61
2023/01/13 10:56:36;;;;;;;4.40;1.65;;;7.60;99.90;;;;;;5002584;28;20061;-60
2023/01/13 10:59:22;;;;;;;4.95;1.17;;;7.60;99.90;;;;;;5043722;28;20021;-57
2023/01/13 11:02:32;;;;;;;7.38;1.42;;;7.60;99.90;;;;;;5039361;28;20489;-58
2023/01/13 11:05:21;;;;;;;12.45;2.35;;;7.60;99.90;;;;;;5038056;28;20657;-60
2023/01/13 11:07:51;;;;;;;9.90;1.48;;;7.70;99.90;;;;;;5037201;28;20017;-59
2023/01/13 11:10:30;;;;;;;6.85;2.80;;;7.70;99.90;;;;;;5033689;28;20052;-60
2023/01/13 11:13:04;;;;;;;7.78;2.28;;;7.80;99.90;;;;;;5037299;28;20050;-57
2023/01/13 11:15:41;;;;;;;6.03;2.22;;;7.80;99.90;;;;;;5016558;28;20700;-57
2023/01/13 11:18:21;;;;;;;5.18;1.55;;;7.90;99.90;;;;;;5040804;28;20041;-56
2023/01/13 11:20:49;;;;;;;8.05;1.95;;;8.00;99.90;;;;;;5034921;28;20059;-57
2023/01/13 11:23:33;;;;;;;6.43;2.10;;;8.20;99.90;;;;;;5034099;28;20029;-56
2023/01/13 11:26:37;;;;;;;8.07;2.22;;;8.30;99.90;;;;;;5035578;28;20036;-59
2023/01/13 11:29:19;;;;;;;8.85;2.17;;;8.30;99.90;;;;;;5033763;28;20048;-58
2023/01/13 11:31:53;;;;;;;11.18;2.38;;;8.40;99.90;;;;;;5038909;28;20033;-57
2023/01/13 11:34:38;;;;;;;5.05;2.03;;;8.50;99.90;;;;;;5036127;28;20029;-56
2023/01/13 11:37:13;;;;;;;5.97;2.15;;;8.50;99.90;;;;;;5034869;28;20029;-59
2023/01/13 11:39:45;;;;;;;5.53;1.63;;;8.40;99.90;;;;;;5033863;28;20026;-59
2023/01/13 11:42:42;;;;;;;6.13;1.58;;;8.40;99.90;;;;;;5036166;28;20095;-55
2023/01/13 11:45:28;;;;;;;;;;;8.30;99.90;;;;;;5034983;28;20017;-58
2023/01/13 11:47:59;;;;;;;6.13;2.53;;;8.30;99.90;;;;;;5025348;28;19995;-58
2023/01/13 11:50:30;;;;;;;5.85;3.00;;;8.20;99.90;;;;;;5034563;28;20535;-56
2023/01/13 11:53:19;;;;;;;4.43;1.65;;;8.10;99.90;;;;;;5042144;28;20113;-59
2023/01/13 11:56:15;;;;;;;3.42;1.45;;;8.00;99.90;;;;;;5034160;28;20032;-57
2023/01/13 11:58:43;;;;;;;7.05;2.08;;;8.00;99.90;;;;;;5041960;28;20025;-57
2023/01/13 12:01:24;;;;;;;7.43;1.75;;;7.90;99.90;;;;;;5035489;28;20497;-60
2023/01/13 12:04:18;;;;;;;9.35;1.92;;;7.80;99.90;;;;;;5039298;28;20045;-60
2023/01/13 12:06:44;;;;;;;6.65;1.73;;;7.80;99.90;;;;;;5035427;28;20475;-56
2023/01/13 12:09:44;;;;;;;7.53;2.38;;;7.80;99.90;;;;;;5039436;28;20099;-58
2023/01/13 12:12:35;;;;;;;9.23;1.92;;;7.70;99.90;;;;;;5032635;28;20021;-60
2023/01/13 12:15:16;;;;;;;9.20;2.28;;;7.70;99.90;;;;;;5037271;28;20029;-60
2023/01/13 12:18:06;;;;;;;8.23;2.65;;;7.70;99.90;;;;;;5036187;28;20029;-61
2023/01/13 12:21:03;;;;;;;9.27;2.20;;;7.70;99.90;;;;;;5034326;28;20021;-62
2023/01/13 12:23:36;;;;;;;7.65;2.28;;;7.70;99.90;;;;;;5036302;28;20021;-59
2023/01/13 12:26:20;;;;;;;7.35;1.95;;;7.70;99.90;;;;;;5034401;28;20032;-56
2023/01/13 12:28:58;;;;;;;6.38;2.58;;;7.70;99.90;;;;;;5034828;28;20036;-59
2023/01/13 12:31:25;;;;;;;6.75;2.45;;;7.60;99.90;;;;;;5037783;28;20029;-58
2023/01/13 12:34:09;;;;;;;7.95;2.65;;;7.60;99.90;;;;;;5033671;28;20374;-60
2023/01/13 12:36:54;;;;;;;8.88;2.83;;;7.60;99.90;;;;;;5033139;28;20060;-60
2023/01/13 12:39:35;;;;;;;6.40;2.10;;;7.50;99.90;;;;;;5041273;28;20029;-58
2023/01/13 12:45:10;;;;;;;8.35;2.55;;;7.50;99.90;;;;;;5039153;28;20028;-59
2023/01/13 12:47:38;;;;;;;8.05;2.08;;;7.40;99.90;;;;;;5035960;28;20048;-56
2023/01/13 12:50:22;;;;;;;6.35;2.80;;;7.30;99.90;;;;;;5016845;28;20045;-57
2023/01/13 12:53:27;;;;;;;11.13;3.58;;;7.30;99.90;;;;;;5022300;28;20722;-56
2023/01/13 12:55:52;;;;;;;13.63;3.40;;;7.30;99.90;;;;;;5029544;28;20037;-59
2023/01/13 12:58:27;;;;;;;11.73;2.67;;;7.30;99.90;;;;;;5034180;28;20021;-59
2023/01/13 13:01:12;;;;;;;7.20;2.55;;;7.30;99.90;;;;;;5037274;28;20037;-57
2023/01/13 13:03:38;;;;;;;7.72;2.25;;;7.30;99.90;;;;;;5038512;28;20532;-58
2023/01/13 13:06:22;;;;;;;10.23;2.72;;;7.20;99.90;;;;;;5015897;28;20025;-57
2023/01/13 13:08:58;;;;;;;10.13;3.13;;;7.20;99.90;;;;;;5037961;28;20020;-58
2023/01/13 13:14:41;;;;;;;7.28;2.35;;;7.10;99.90;;;;;;5035133;28;20029;-55
2023/01/13 13:17:27;;;;;;;7.53;2.03;;;7.10;99.90;;;;;;5034931;28;20017;-62
2023/01/13 13:19:58;;;;;;;7.30;3.22;;;7.10;99.90;;;;;;5037705;28;20013;-58
2023/01/13 13:22:26;;;;;;;11.73;2.42;;;7.10;99.90;;;;;;5038285;28;20554;-54
2023/01/13 13:24:55;;;;;;;6.63;2.30;;;7.10;99.90;;;;;;5034236;28;20489;-60
2023/01/13 13:27:26;;;;;;;6.97;2.92;;;7.20;99.90;;;;;;5034549;28;20393;-60
2023/01/13 13:30:13;;;;;;;7.00;2.30;;;7.20;99.90;;;;;;5036634;28;20504;-57
2023/01/13 13:32:53;;;;;;;8.15;2.80;;;7.20;99.90;;;;;;5035816;28;20417;-59
2023/01/13 13:35:24;;;;;;;7.95;2.25;;;7.30;99.90;;;;;;5035126;28;20109;-57
2023/01/13 13:47:03;;;;;;;5.68;2.17;;;7.40;99.90;;;;;;5036992;28;20078;-59
2023/01/13 13:49:39;;;;;;;8.10;1.88;;;7.30;99.90;;;;;;5038538;28;20048;-57
2023/01/13 13:52:15;;;;;;;11.85;4.88;;;7.40;99.90;;;;;;5016382;28;20071;-53
2023/01/13 13:54:46;;;;;;;12.45;3.83;;;7.40;99.90;;;;;;5036100;28;20734;-60
2023/01/13 13:57:21;;;;;;;5.28;2.20;;;7.40;99.90;;;;;;5038558;28;20037;-58
2023/01/13 13:59:55;;;;;;;5.82;2.60;;;7.40;99.90;;;;;;5016107;28;20025;-60
2023/01/13 14:02:33;;;;;;;12.35;3.70;;;7.40;99.90;;;;;;5038281;28;20033;-57
2023/01/13 14:05:20;;;;;;;4.32;1.80;;;7.40;99.90;;;;;;5033506;28;20017;-59
2023/01/13 14:08:11;;;;;;;7.90;2.00;;;7.40;99.90;;;;;;5034159;28;20498;-57
2023/01/13 14:10:39;;;;;;;7.68;2.20;;;7.40;99.90;;;;;;5024084;28;20053;-60
2023/01/13 14:13:16;;;;;;;5.32;3.00;;;7.40;99.90;;;;;;5018240;28;20515;-58
2023/01/13 14:15:43;;;;;;;8.73;3.25;;;7.40;99.90;;;;;;5017466;28;20098;-59
2023/01/13 14:18:14;;;;;;;10.23;2.33;;;7.40;99.90;;;;;;5032820;28;20022;-59